Time;durP1;ratioP1;P1;durP2;ratioP2;P2;SDS_P1;SDS_P2;PMS_P1;PMS_P2;Temp;Humidity;BMP_temperature;BMP_pressure;BME280_temperature;BME280_humidity;BME280_pressure;Samples;Min_cycle;Max_cycle;Signal;HPM_P1;HPM_P2
2023/10/14 00:01:13;;;;;;;;;0.25;0.25;;;;;19.78;100.00;100340.13;5047305;28;45659;-79
2023/10/14 00:03:45;;;;;;;;;0.00;0.00;;;;;19.79;100.00;100352.91;5033072;28;47610;-78
2023/10/14 00:06:13;;;;;;;;;0.00;0.00;;;;;19.74;100.00;100359.28;5029998;28;45816;-77
2023/10/14 00:08:54;;;;;;;;;0.00;0.00;;;;;19.75;100.00;100364.56;5032501;28;45487;-80
2023/10/14 00:11:21;;;;;;;;;1.00;1.00;;;;;19.71;100.00;100371.78;5030797;28;45781;-79
2023/10/14 00:13:52;;;;;;;;;0.00;0.00;;;;;19.68;100.00;100380.69;5030493;28;45847;-80
2023/10/14 00:18:50;;;;;;;;;0.00;0.00;;;;;19.60;100.00;100392.41;5032300;28;45852;-78
2023/10/14 00:21:15;;;;;;;;;0.75;0.75;;;;;19.54;100.00;100397.13;5029860;28;45991;-78
2023/10/14 00:23:41;;;;;;;;;0.00;0.00;;;;;19.47;100.00;100404.91;5031069;28;46158;-79
2023/10/14 00:26:14;;;;;;;;;0.00;0.00;;;;;19.44;100.00;100419.34;5035963;28;45774;-78
2023/10/14 00:28:41;;;;;;;;;0.50;0.00;;;;;19.39;100.00;100420.19;5035029;28;45775;-77
2023/10/14 00:31:10;;;;;;;;;0.00;0.00;;;;;19.32;100.00;100416.84;5031881;28;45767;-78
2023/10/14 00:33:35;;;;;;;;;1.75;0.25;;;;;19.26;100.00;100434.63;5029579;28;46636;-77
2023/10/14 00:36:01;;;;;;;;;1.00;0.00;;;;;19.13;100.00;100429.59;5031586;28;45756;-77
2023/10/14 00:38:27;;;;;;;;;0.00;0.00;;;;;19.17;100.00;100447.41;5031321;28;46198;-76
2023/10/14 00:40:53;;;;;;;;;1.00;0.00;;;;;19.16;100.00;100454.91;5021570;28;45892;-77
2023/10/14 00:43:20;;;;;;;;;0.00;0.00;;;;;19.16;100.00;100460.47;5027378;28;46298;-77
2023/10/14 00:45:47;;;;;;;;;0.00;0.00;;;;;19.16;100.00;100466.03;5040078;28;45848;-78
2023/10/14 00:48:20;;;;;;;;;0.25;0.00;;;;;19.15;100.00;100458.78;5033519;28;45692;-78
2023/10/14 00:50:47;;;;;;;;;1.00;1.00;;;;;19.12;100.00;100461.28;5032889;28;45974;-77
2023/10/14 00:53:13;;;;;;;;;2.00;0.00;;;;;19.11;100.00;100479.06;5030553;28;45850;-77
2023/10/14 00:58:12;;;;;;;;;0.00;0.00;;;;;19.08;100.00;100483.22;5031472;28;45828;-77
2023/10/14 01:01:01;;;;;;;;;0.00;0.00;;;;;19.10;100.00;100492.16;5032887;28;45762;-78
2023/10/14 01:03:31;;;;;;;;;0.00;0.00;;;;;19.10;100.00;100500.47;5028703;28;45405;-76
2023/10/14 01:06:14;;;;;;;;;0.00;0.00;;;;;18.96;100.00;100485.41;5025564;28;45787;-77
2023/10/14 01:08:43;;;;;;;;;0.50;0.50;;;;;18.97;100.00;100523.22;5018730;28;45555;-77
2023/10/14 01:11:08;;;;;;;;;0.00;0.00;;;;;18.93;100.00;100524.84;5027825;28;45686;-77
2023/10/14 01:13:34;;;;;;;;;0.75;0.75;;;;;18.85;100.00;100532.59;5029140;28;45494;-77
2023/10/14 01:16:08;;;;;;;;;0.00;0.00;;;;;18.84;100.00;100541.16;5030948;28;45860;-76
2023/10/14 01:18:39;;;;;;;;;0.00;0.00;;;;;18.77;100.00;100541.41;5034603;28;45374;-77
2023/10/14 01:21:06;;;;;;;;;1.50;0.00;;;;;18.65;100.00;100544.41;5027091;28;45996;-77
2023/10/14 01:23:35;;;;;;;;;0.00;0.00;;;;;18.66;100.00;100556.34;5033683;28;45417;-76
2023/10/14 01:26:04;;;;;;;;;0.00;0.00;;;;;18.57;100.00;100555.16;5030340;28;45709;-76
2023/10/14 01:28:30;;;;;;;;;0.00;0.00;;;;;18.47;100.00;100559.56;5037570;28;45702;-76
2023/10/14 01:31:33;;;;;;;;;1.00;0.25;;;;;18.42;100.00;100578.09;5032053;28;45443;-75
2023/10/14 01:34:04;;;;;;;;;3.00;0.25;;;;;18.34;100.00;100587.78;5033037;28;46669;-76
2023/10/14 01:36:37;;;;;;;;;1.50;1.00;;;;;18.23;100.00;100583.22;5031551;28;45627;-75
2023/10/14 01:39:11;;;;;;;;;2.00;1.00;;;;;18.12;100.00;100588.66;5034066;28;46016;-76
2023/10/14 01:41:36;;;;;;;;;1.25;0.00;;;;;17.94;100.00;100602.94;5017742;28;45891;-75
2023/10/14 01:44:11;;;;;;;;;2.50;0.75;;;;;17.76;100.00;100607.69;5029692;28;46551;-76
2023/10/14 01:46:39;;;;;;;;;1.00;1.00;;;;;17.66;100.00;100621.44;5036116;28;45869;-77
2023/10/14 01:49:16;;;;;;;;;1.75;0.00;;;;;17.58;100.00;100625.53;5038585;28;45747;-77
2023/10/14 01:51:41;;;;;;;;;0.00;0.00;;;;;17.48;100.00;100639.25;5032414;28;45712;-75
2023/10/14 01:54:09;;;;;;;;;3.00;1.00;;;;;17.38;100.00;100656.63;5032847;28;46002;-77
2023/10/14 01:56:37;;;;;;;;;0.25;0.25;;;;;17.26;100.00;100665.03;5033185;28;45859;-76
2023/10/14 01:59:03;;;;;;;;;2.33;0.67;;;;;17.19;100.00;100677.41;5025943;28;45411;-77
2023/10/14 02:01:34;;;;;;;;;5.33;1.00;;;;;17.14;100.00;100692.03;5028468;28;45782;-76
2023/10/14 02:03:59;;;;;;;;;0.00;0.00;;;;;17.13;100.00;100697.81;5031328;28;45866;-76
2023/10/14 02:06:28;;;;;;;;;5.00;0.33;;;;;17.02;100.00;100700.44;5027687;28;45789;-76
2023/10/14 02:08:55;;;;;;;;;1.33;1.33;;;;;16.91;100.00;100709.66;5027463;28;45892;-76
2023/10/14 02:11:25;;;;;;;;;0.25;0.25;;;;;16.88;100.00;100712.94;5032118;28;45400;-76
2023/10/14 02:13:52;;;;;;;;;2.00;1.00;;;;;16.79;100.00;100706.94;5023085;28;45804;-76
2023/10/14 02:16:24;;;;;;;;;4.33;1.00;;;;;16.66;100.00;100710.91;5033239;28;45459;-76
2023/10/14 02:18:49;;;;;;;;;2.00;1.00;;;;;16.57;100.00;100729.84;5030407;28;45477;-76
2023/10/14 02:21:17;;;;;;;;;0.00;0.00;;;;;16.34;100.00;100718.88;5031284;28;46147;-77
2023/10/14 02:23:49;;;;;;;;;0.67;0.00;;;;;16.27;100.00;100735.63;5030827;28;45492;-76
2023/10/14 02:26:26;;;;;;;;;3.00;0.00;;;;;16.20;100.00;100735.78;5034911;28;45549;-76
2023/10/14 02:28:53;;;;;;;;;0.00;0.00;;;;;16.15;100.00;100734.84;5038102;28;45735;-78
2023/10/14 02:34:05;;;;;;;;;1.33;1.33;;;;;16.05;100.00;100744.63;5036946;28;46124;-76
2023/10/14 02:36:35;;;;;;;;;5.33;3.00;;;;;15.94;100.00;100753.78;5032921;28;45758;-76
2023/10/14 02:39:00;;;;;;;;;2.00;1.00;;;;;15.91;100.00;100747.91;5032348;28;45745;-76
2023/10/14 02:41:26;;;;;;;;;1.00;0.00;;;;;15.85;100.00;100755.25;5031512;28;45676;-77
2023/10/14 02:44:30;;;;;;;;;1.00;1.00;;;;;15.83;100.00;100761.03;5032168;28;45920;-77
2023/10/14 02:46:54;;;;;;;;;2.00;0.00;;;;;15.82;100.00;100762.13;5028843;28;45797;-76
2023/10/14 02:49:24;;;;;;;;;2.33;0.67;;;;;15.73;100.00;100773.78;5031760;28;45720;-77
2023/10/14 02:51:52;;;;;;;;;3.67;0.33;;;;;15.65;100.00;100762.00;5029121;28;45478;-76
2023/10/14 02:54:26;;;;;;;;;2.67;0.67;;;;;15.62;100.00;100779.06;5023891;28;46220;-75
2023/10/14 02:56:59;;;;;;;;;1.33;1.00;;;;;15.47;100.00;100768.50;5030710;28;45335;-75
2023/10/14 02:59:43;;;;;;;;;1.00;1.00;;;;;15.45;100.00;100783.63;5029244;28;45560;-76
2023/10/14 03:02:16;;;;;;;;;0.00;0.00;;;;;15.30;100.00;100784.09;5038329;28;45857;-78
2023/10/14 03:04:55;;;;;;;;;1.00;0.00;;;;;15.18;100.00;100786.88;5030388;28;46939;-77
2023/10/14 03:07:36;;;;;;;;;2.67;1.00;;;;;15.13;100.00;100800.56;5032210;28;45542;-78
2023/10/14 03:12:48;;;;;;;;;3.00;0.00;;;;;14.92;100.00;100811.06;5025880;28;45432;-77
2023/10/14 03:15:21;;;;;;;;;2.67;1.00;;;;;14.85;100.00;100817.78;5031623;28;45433;-76
2023/10/14 03:17:53;;;;;;;;;2.00;0.00;;;;;14.76;100.00;100809.00;5031323;28;45428;-77
2023/10/14 03:20:59;;;;;;;;;2.00;1.00;;;;;14.69;100.00;100813.78;5028919;28;45354;-76
2023/10/14 03:23:18;;;;;;;;;4.00;2.00;;;;;14.62;100.00;100827.69;5016101;28;45552;-77
2023/10/14 03:25:49;;;;;;;;;2.33;0.33;;;;;14.53;100.00;100837.31;5029808;28;46224;-75
2023/10/14 03:28:21;;;;;;;;;1.00;1.00;;;;;14.40;100.00;100828.16;5035015;28;45526;-77
2023/10/14 03:31:00;;;;;;;;;0.00;0.00;;;;;14.42;100.00;100850.84;5030558;28;45935;-75
2023/10/14 03:33:27;;;;;;;;;2.67;1.00;;;;;14.40;100.00;100849.38;5029555;28;45659;-76
2023/10/14 03:35:58;;;;;;;;;1.00;1.00;;;;;14.21;100.00;100835.59;5029298;28;46166;-77
2023/10/14 03:38:39;;;;;;;;;4.00;2.33;;;;;14.26;100.00;100849.53;5029852;28;45568;-71
2023/10/14 03:46:23;;;;;;;;;5.33;4.33;;;;;14.08;100.00;100852.31;5027850;28;46443;-79
2023/10/14 03:48:48;;;;;;;;;0.67;0.00;;;;;13.89;100.00;100835.78;5032402;28;45849;-77
2023/10/14 03:51:27;;;;;;;;;4.67;2.00;;;;;14.00;100.00;100855.38;5031339;28;45452;-78
2023/10/14 03:53:53;;;;;;;;;1.67;1.67;;;;;13.97;100.00;100858.56;5030550;28;45800;-78
2023/10/14 03:56:25;;;;;;;;;2.00;1.00;;;;;13.93;100.00;100872.81;5030337;28;46145;-78
2023/10/14 03:58:55;;;;;;;;;2.00;1.00;;;;;13.90;100.00;100872.44;5030798;28;45942;-76
2023/10/14 04:01:43;;;;;;;;;1.33;1.00;;;;;13.87;100.00;100873.72;5018119;28;45432;-77
2023/10/14 04:04:18;;;;;;;;;3.33;1.33;;;;;13.87;100.00;100887.53;5026272;28;45486;-77
2023/10/14 04:06:52;;;;;;;;;1.00;1.00;;;;;13.84;100.00;100882.47;5023170;28;48094;-79
2023/10/14 04:09:23;;;;;;;;;1.67;1.67;;;;;13.84;100.00;100889.91;5028762;28;45906;-78
2023/10/14 04:11:52;;;;;;;;;2.67;1.00;;;;;13.80;100.00;100888.66;5031254;28;45619;-77
2023/10/14 04:14:22;;;;;;;;;2.33;0.67;;;;;13.73;100.00;100877.72;5031005;28;45559;-78
2023/10/14 04:16:48;;;;;;;;;3.00;2.00;;;;;13.80;100.00;100888.66;5028790;28;47054;-76
2023/10/14 04:21:53;;;;;;;;;1.00;1.00;;;;;13.71;100.00;100902.75;5029351;28;45851;-75
2023/10/14 04:24:28;;;;;;;;;1.33;1.33;;;;;13.70;100.00;100905.72;5026226;28;45818;-79
2023/10/14 04:27:16;;;;;;;;;1.00;1.00;;;;;13.65;100.00;100908.31;5026487;28;46199;-77
2023/10/14 04:29:39;;;;;;;;;2.00;1.00;;;;;13.63;100.00;100911.28;5020773;28;45773;-77
2023/10/14 04:32:14;;;;;;;;;2.33;1.00;;;;;13.59;100.00;100913.66;5029396;28;45475;-75
2023/10/14 04:34:42;;;;;;;;;3.67;3.00;;;;;13.58;100.00;100917.47;5015755;28;45674;-75
2023/10/14 04:37:08;;;;;;;;;1.33;1.00;;;;;13.55;100.00;100920.69;5026863;28;47401;-76
2023/10/14 04:39:42;;;;;;;;;1.00;1.00;;;;;13.45;100.00;100902.97;5026702;28;45793;-76
2023/10/14 04:44:59;;;;;;;;;2.33;1.33;;;;;13.50;100.00;100927.91;5031560;28;45334;-76
2023/10/14 04:47:35;;;;;;;;;1.00;1.00;;;;;13.48;100.00;100921.81;5031058;28;46233;-77
2023/10/14 04:50:10;;;;;;;;;1.00;1.00;;;;;13.43;100.00;100928.00;5030405;28;45660;-76
2023/10/14 04:52:36;;;;;;;;;0.67;0.67;;;;;13.42;100.00;100926.28;5031390;28;45759;-75
2023/10/14 04:57:51;;;;;;;;;2.00;2.00;;;;;13.39;100.00;100938.59;5027770;28;45537;-76
2023/10/14 05:00:30;;;;;;;;;5.00;1.33;;;;;13.36;100.00;100938.22;5028910;28;46022;-77
2023/10/14 05:02:59;;;;;;;;;0.67;0.67;;;;;13.32;100.00;100942.44;5026928;28;45889;-75
2023/10/14 05:05:30;;;;;;;;;2.00;2.00;;;;;13.33;100.00;100949.63;5045787;28;45540;-76
2023/10/14 05:07:58;;;;;;;;;2.00;1.00;;;;;13.32;100.00;100945.19;5029330;28;46427;-76
2023/10/14 05:10:28;;;;;;;;;4.67;2.67;;;;;13.19;100.00;100932.38;5029116;28;45785;-74
2023/10/14 05:12:53;;;;;;;;;2.00;1.00;;;;;13.27;100.00;100947.78;5030314;28;45971;-77
2023/10/14 05:15:25;;;;;;;;;7.67;1.00;;;;;13.24;100.00;100947.13;5029982;28;45483;-77
2023/10/14 05:17:52;;;;;;;;;5.33;1.00;;;;;13.18;100.00;100947.19;5045881;28;48046;-75
2023/10/14 05:20:47;;;;;;;;;3.00;2.00;;;;;13.15;100.00;100945.72;5030105;28;45791;-75
2023/10/14 05:23:13;;;;;;;;;2.67;2.67;;;;;13.11;100.00;100949.97;5028942;28;45871;-76
2023/10/14 05:25:39;;;;;;;;;1.67;1.67;;;;;13.04;100.00;100952.78;5021125;28;45699;-76
2023/10/14 05:28:06;;;;;;;;;4.00;2.00;;;;;13.02;100.00;100959.56;5030134;28;45903;-74
2023/10/14 05:30:33;;;;;;;;;1.67;1.67;;;;;12.82;100.00;100949.50;5030360;28;45788;-77
2023/10/14 05:33:13;;;;;;;;;2.67;1.00;;;;;12.98;100.00;100980.31;5029868;28;45662;-76
2023/10/14 05:35:43;;;;;;;;;1.33;1.33;;;;;12.95;100.00;100987.13;5027720;28;45892;-75
2023/10/14 05:38:11;;;;;;;;;1.67;1.33;;;;;12.95;100.00;100983.50;5029505;28;45658;-77
2023/10/14 05:40:38;;;;;;;;;1.67;1.33;;;;;12.94;100.00;100977.19;5028910;28;46054;-74
2023/10/14 05:43:06;;;;;;;;;4.00;2.33;;;;;12.93;100.00;100982.91;5024643;28;45760;-77
2023/10/14 05:45:35;;;;;;;;;3.00;2.00;;;;;12.95;100.00;100992.63;5024895;28;45837;-79
2023/10/14 05:48:04;;;;;;;;;3.67;2.67;;;;;12.98;100.00;100996.84;5020391;28;46106;-77
2023/10/14 05:50:37;;;;;;;;;4.00;2.33;;;;;13.02;100.00;100996.22;5035026;28;45777;-78
2023/10/14 05:53:07;;;;;;;;;2.67;2.33;;;;;13.06;100.00;100993.84;5026888;28;45647;-77
2023/10/14 05:55:33;;;;;;;;;4.33;2.00;;;;;13.00;100.00;100984.56;5021560;28;46423;-77
2023/10/14 05:58:00;;;;;;;;;2.00;2.00;;;;;13.12;100.00;100997.66;5020068;28;46277;-77
2023/10/14 06:00:27;;;;;;;;;4.00;2.00;;;;;13.13;100.00;101002.94;5021875;28;47206;-78
2023/10/14 06:02:55;;;;;;;;;3.00;3.00;;;;;13.18;100.00;101013.28;5025889;28;45624;-76
2023/10/14 06:05:32;;;;;;;;;3.67;2.00;;;;;13.15;100.00;101009.06;5026598;28;46078;-77
2023/10/14 06:08:05;;;;;;;;;3.00;2.67;;;;;13.19;100.00;101014.97;5029286;28;46185;-76
2023/10/14 06:10:36;;;;;;;;;5.00;4.00;;;;;13.17;100.00;101017.97;5037356;28;45848;-76
2023/10/14 06:13:05;;;;;;;;;5.00;3.00;;;;;13.08;100.00;101008.22;5029915;28;45429;-78
2023/10/14 06:15:32;;;;;;;;;2.33;2.00;;;;;13.18;100.00;101035.31;5028505;28;45679;-75
2023/10/14 06:17:58;;;;;;;;;4.00;2.00;;;;;13.19;100.00;101031.50;5026528;28;45727;-79
2023/10/14 06:20:23;;;;;;;;;5.67;4.00;;;;;13.21;100.00;101045.91;5029242;28;45892;-78
2023/10/14 06:22:50;;;;;;;;;3.33;3.00;;;;;13.22;100.00;101051.19;5029022;28;46397;-77
2023/10/14 06:25:16;;;;;;;;;2.00;2.00;;;;;13.20;100.00;101056.06;5027887;28;46206;-79
2023/10/14 06:27:45;;;;;;;;;6.33;4.00;;;;;13.21;100.00;101059.66;5023098;28;46482;-79
2023/10/14 06:30:21;;;;;;;;;3.00;2.00;;;;;13.22;100.00;101064.13;5026788;28;45842;-80
2023/10/14 06:33:03;;;;;;;;;8.00;4.00;;;;;13.22;100.00;101061.38;5031148;28;45915;-80
2023/10/14 06:35:32;;;;;;;;;10.33;3.00;;;;;13.27;100.00;101067.03;5028398;28;45529;-79
2023/10/14 06:37:58;;;;;;;;;3.00;2.67;;;;;13.31;100.00;101067.44;5027016;28;45564;-80
2023/10/14 06:40:24;;;;;;;;;4.67;3.00;;;;;13.40;100.00;101085.47;5028507;28;46076;-79
2023/10/14 06:42:50;;;;;;;;;4.00;2.00;;;;;13.45;100.00;101077.38;5027633;28;45638;-80
2023/10/14 06:45:21;;;;;;;;;4.00;4.00;;;;;13.53;100.00;101071.63;5031651;28;45458;-75
2023/10/14 06:47:51;;;;;;;;;2.67;2.67;;;;;13.61;100.00;101087.06;5031387;28;46845;-78
2023/10/14 06:50:20;;;;;;;;;6.33;3.33;;;;;13.66;100.00;101086.38;5029781;28;45884;-77
2023/10/14 06:52:47;;;;;;;;;4.33;3.00;;;;;13.73;100.00;101100.97;5025364;28;45733;-76
2023/10/14 06:55:12;;;;;;;;;5.00;2.00;;;;;13.78;100.00;101104.72;5025979;28;46091;-76
2023/10/14 06:57:38;;;;;;;;;4.67;3.67;;;;;13.86;100.00;101105.53;5025197;28;46078;-73
2023/10/14 07:00:11;;;;;;;;;3.67;3.67;;;;;13.93;100.00;101112.69;5028492;28;45404;-75
2023/10/14 07:02:37;;;;;;;;;8.00;5.00;;;;;13.97;100.00;101110.34;5025803;28;45939;-77
2023/10/14 07:05:03;;;;;;;;;4.00;4.00;;;;;14.06;100.00;101110.94;5025750;28;46410;-75
2023/10/14 07:07:29;;;;;;;;;6.00;4.67;;;;;14.10;100.00;101112.16;5027135;28;45831;-79
2023/10/14 07:09:55;;;;;;;;;6.67;4.00;;;;;14.15;100.00;101106.84;5022884;28;46066;-76
2023/10/14 07:12:21;;;;;;;;;4.67;3.00;;;;;14.28;100.00;101122.41;5025137;28;45471;-78
2023/10/14 07:14:47;;;;;;;;;3.00;1.67;;;;;14.37;100.00;101136.78;5026238;28;45533;-78
2023/10/14 07:17:22;;;;;;;;;6.00;3.67;;;;;14.46;100.00;101143.72;5011033;28;46278;-74
2023/10/14 07:19:47;;;;;;;;;6.67;2.67;;;;;14.53;100.00;101139.00;5034239;28;45313;-75
2023/10/14 07:22:15;;;;;;;;;6.00;2.00;;;;;14.61;100.00;101152.56;5031013;28;45610;-77
2023/10/14 07:24:47;;;;;;;;;4.00;3.00;;;;;14.70;100.00;101157.78;5030550;28;46207;-77
2023/10/14 07:27:23;;;;;;;;;5.33;3.00;;;;;14.74;100.00;101156.25;5029950;28;46022;-76
2023/10/14 07:30:26;;;;;;;;;5.00;2.00;;;;;14.86;100.00;101171.00;5034642;28;45484;-76
2023/10/14 07:32:52;;;;;;;;;3.00;2.00;;;;;14.91;100.00;101157.38;5037146;28;45810;-75
2023/10/14 07:35:18;;;;;;;;;5.00;3.00;;;;;15.02;100.00;101157.69;5029838;28;45695;-75
2023/10/14 07:37:48;;;;;;;;;3.00;1.67;;;;;15.12;100.00;101167.13;5025787;28;45693;-75
2023/10/14 07:40:23;;;;;;;;;5.00;2.00;;;;;15.17;100.00;101163.69;5033305;28;45337;-76
2023/10/14 07:43:05;;;;;;;;;4.67;1.33;;;;;15.31;100.00;101170.75;5031310;28;45732;-76
2023/10/14 07:45:42;;;;;;;;;6.67;1.33;;;;;15.39;100.00;101169.59;5027077;28;46521;-75
2023/10/14 07:48:09;;;;;;;;;2.67;2.67;;;;;15.60;100.00;101171.06;5025752;28;47326;-76
2023/10/14 07:50:50;;;;;;;;;6.33;5.00;;;;;15.95;100.00;101178.69;5025053;28;45516;-75
2023/10/14 07:53:24;;;;;;;;;1.67;1.67;;;;;16.18;100.00;101185.38;5029775;28;46815;-75
2023/10/14 07:55:52;;;;;;;;;4.33;4.33;;;;;16.28;100.00;101191.19;5030695;28;46771;-76
2023/10/14 07:58:23;;;;;;;;;7.67;2.67;;;;;16.34;100.00;101193.03;5021899;28;45886;-76
2023/10/14 08:00:50;;;;;;;;;36.67;33.33;;;;;16.39;100.00;101198.72;5031315;28;45955;-75
2023/10/14 08:03:36;;;;;;;;;9.00;6.00;;;;;16.44;100.00;101206.31;5035367;28;45370;-77
2023/10/14 08:06:05;;;;;;;;;3.67;3.67;;;;;16.46;100.00;101215.19;5047429;28;46055;-76
2023/10/14 08:08:31;;;;;;;;;11.33;7.67;;;;;16.45;100.00;101207.13;5031151;28;46044;-75
2023/10/14 08:11:02;;;;;;;;;28.67;25.33;;;;;16.49;100.00;101211.13;5030949;28;45618;-76
2023/10/14 08:13:30;;;;;;;;;6.67;5.67;;;;;16.54;100.00;101216.78;5026294;28;45640;-76
2023/10/14 08:15:57;;;;;;;;;5.00;3.00;;;;;16.58;100.00;101218.84;5040750;28;45727;-76
2023/10/14 08:18:23;;;;;;;;;3.00;2.00;;;;;16.66;100.00;101214.91;5033004;28;45610;-76
2023/10/14 08:20:55;;;;;;;;;8.67;4.00;;;;;16.87;100.00;101226.50;5030606;28;45577;-77
2023/10/14 08:23:21;;;;;;;;;3.67;3.00;;;;;17.06;100.00;101218.94;5028017;28;45344;-76
2023/10/14 08:25:54;;;;;;;;;5.00;2.00;;;;;17.27;100.00;101217.47;5026891;28;45595;-76
2023/10/14 08:28:21;;;;;;;;;7.33;3.00;;;;;17.50;100.00;101219.41;5022173;28;45837;-74
2023/10/14 08:30:46;;;;;;;;;3.00;2.67;;;;;17.58;100.00;101221.78;5030017;28;45724;-78
2023/10/14 08:33:15;;;;;;;;;11.00;5.33;;;;;17.60;100.00;101224.31;5019287;28;45798;-78
2023/10/14 08:35:42;;;;;;;;;1.33;1.33;;;;;17.58;100.00;101215.41;5024836;28;45677;-77
2023/10/14 08:38:17;;;;;;;;;7.00;5.33;;;;;17.55;100.00;101222.28;5024761;28;46884;-77
2023/10/14 08:40:44;;;;;;;;;11.33;6.67;;;;;17.46;100.00;101232.88;5014849;28;45896;-77
2023/10/14 08:43:16;;;;;;;;;1.33;1.33;;;;;17.26;100.00;101210.25;5014765;28;45580;-78
2023/10/14 08:45:47;;;;;;;;;3.00;2.00;;;;;17.26;100.00;101222.19;5018000;28;45448;-79
2023/10/14 08:48:16;;;;;;;;;5.33;2.00;;;;;17.33;100.00;101244.22;5012429;28;45547;-78
2023/10/14 08:50:42;;;;;;;;;3.00;1.33;;;;;17.31;100.00;101249.19;5026975;28;46746;-77
2023/10/14 08:53:10;;;;;;;;;3.00;3.00;;;;;17.39;100.00;101250.75;5022326;28;45617;-76
2023/10/14 08:55:37;;;;;;;;;2.00;2.00;;;;;17.48;100.00;101249.28;5028827;28;45847;-76
2023/10/14 08:58:05;;;;;;;;;1.33;1.00;;;;;17.76;100.00;101250.47;5027024;28;46424;-77
2023/10/14 09:00:36;;;;;;;;;4.33;4.33;;;;;18.00;100.00;101252.09;5028638;28;45370;-77
2023/10/14 09:03:09;;;;;;;;;8.00;4.33;;;;;18.29;100.00;101249.34;5028469;28;45759;-77
2023/10/14 09:05:41;;;;;;;;;6.33;5.00;;;;;18.71;100.00;101248.13;5027727;28;45683;-79
2023/10/14 09:08:09;;;;;;;;;2.67;2.67;;;;;19.39;100.00;101265.69;5027345;28;45952;-78
2023/10/14 09:10:39;;;;;;;;;3.00;3.00;;;;;19.98;100.00;101263.44;5009668;28;45849;-78
2023/10/14 09:13:08;;;;;;;;;5.00;2.00;;;;;20.27;100.00;101258.50;5026455;28;45716;-75
2023/10/14 09:15:41;;;;;;;;;1.50;1.50;;;;;20.42;100.00;101263.41;5027375;28;45748;-77
2023/10/14 09:18:11;;;;;;;;;1.33;1.33;;;;;20.64;100.00;101260.53;5025798;28;46320;-75
2023/10/14 09:20:38;;;;;;;;;2.00;1.00;;;;;20.69;100.00;101257.84;5026169;28;45892;-75
2023/10/14 09:23:16;;;;;;;;;2.33;2.00;;;;;20.74;100.00;101263.44;5023829;28;45982;-76
2023/10/14 09:25:50;;;;;;;;;4.00;2.00;;;;;20.69;100.00;101260.63;5021378;28;45799;-75
2023/10/14 09:28:17;;;;;;;;;1.25;1.00;;;;;20.71;100.00;101263.16;5026622;28;45559;-71
2023/10/14 09:30:49;;;;;;;;;4.75;0.75;;;;;20.87;100.00;101269.69;5024228;28;45966;-78
2023/10/14 09:33:20;;;;;;;;;1.50;1.50;;;;;21.03;100.00;101276.25;5026662;28;45949;-79
2023/10/14 09:35:50;;;;;;;;;2.00;2.00;;;;;21.14;100.00;101278.03;5025111;28;45800;-78
2023/10/14 09:38:18;;;;;;;;;1.25;1.25;;;;;21.16;100.00;101284.16;5025753;28;45855;-79
2023/10/14 09:41:12;;;;;;;;;4.00;2.25;;;;;21.11;100.00;101267.41;5024547;28;45590;-78
2023/10/14 09:43:39;;;;;;;;;1.50;1.25;;;;;21.04;100.00;101262.03;5029694;28;45987;-76
2023/10/14 09:46:27;;;;;;;;;3.50;1.25;;;;;21.12;100.00;101285.81;5024974;28;46058;-76
2023/10/14 09:48:55;;;;;;;;;4.00;1.50;;;;;21.06;100.00;101284.91;5027499;28;45545;-75
2023/10/14 09:51:22;;;;;;;;;2.00;1.25;;;;;20.99;100.00;101279.56;5029462;28;45598;-74
2023/10/14 09:53:49;;;;;;;;;2.75;0.00;;;;;20.95;100.00;101277.59;5024847;28;45443;-74
2023/10/14 09:56:14;;;;;;;;;4.50;1.00;;;;;21.16;100.00;101287.78;5030626;28;45654;-78
2023/10/14 09:58:43;;;;;;;;;1.00;1.00;;;;;21.26;100.00;101291.78;5029229;28;45606;-79
2023/10/14 10:01:14;;;;;;;;;1.25;1.25;;;;;21.24;100.00;101282.81;5029156;28;45932;-77
2023/10/14 10:03:58;;;;;;;;;4.00;1.00;;;;;21.22;100.00;101291.47;5026800;28;45881;-78
2023/10/14 10:06:43;;;;;;;;;2.50;2.50;;;;;21.41;100.00;101291.88;5030518;28;46575;-80
2023/10/14 10:09:34;;;;;;;;;3.00;1.75;;;;;21.55;100.00;101292.28;5029714;28;47562;-76
2023/10/14 10:12:04;;;;;;;;;1.25;1.25;;;;;21.54;98.71;101296.16;5032814;28;45772;-78
2023/10/14 10:14:37;;;;;;;;;1.25;1.25;;;;;21.50;97.35;101295.06;5030887;28;45468;-78
2023/10/14 10:17:08;;;;;;;;;2.25;1.00;;;;;21.53;98.36;101297.31;5025250;28;45799;-78
2023/10/14 10:20:12;;;;;;;;;0.00;0.00;;;;;21.62;98.66;101309.63;5042672;28;46276;-79
2023/10/14 10:22:50;;;;;;;;;2.00;1.50;;;;;21.61;97.01;101312.69;4923937;28;45919;-79
2023/10/14 10:25:20;;;;;;;;;3.00;2.00;;;;;21.62;94.72;101318.00;5016843;28;46561;-78
2023/10/14 10:27:49;;;;;;;;;1.00;1.00;;;;;21.49;95.77;101318.44;5029270;28;45754;-76
2023/10/14 10:30:17;;;;;;;;;4.75;1.00;;;;;21.30;94.71;101321.66;5043036;22;45750;-79
2023/10/14 10:32:48;;;;;;;;;4.00;1.00;;;;;21.06;96.51;101306.41;5022962;28;45622;-81
2023/10/14 10:35:16;;;;;;;;;2.75;2.00;;;;;20.94;98.40;101320.50;5021955;28;45673;-81
2023/10/14 10:37:49;;;;;;;;;1.00;1.00;;;;;20.79;98.50;101324.84;5024875;28;45857;-77
2023/10/14 10:40:28;;;;;;;;;3.75;2.00;;;;;20.96;99.21;101343.41;5022754;28;45495;-81
2023/10/14 10:43:09;;;;;;;;;4.00;3.00;;;;;21.08;100.00;101338.50;5002911;28;45834;-81
2023/10/14 10:45:42;;;;;;;;;30.00;27.33;;;;;21.20;99.87;101340.25;5021216;28;46105;-83
2023/10/14 10:48:14;;;;;;;;;4.00;3.00;;;;;21.24;99.27;101328.31;5017432;28;45719;-84
2023/10/14 10:54:11;;;;;;;;;4.00;3.00;;;;;21.64;96.54;101340.91;4963223;28;45492;-87
2023/10/14 11:17:37;;;;;;;;;1.67;1.67;;;;;20.43;91.33;101343.06;4912489;28;45828;-88
2023/10/14 11:38:15;;;;;;;;;1.50;1.00;;;;;19.46;93.66;101356.44;4931567;28;45555;-89
2023/10/14 11:40:54;;;;;;;;;4.00;2.00;;;;;19.14;95.24;101298.66;4901802;28;45875;-89
2023/10/14 11:44:21;;;;;;;;;;;;;;;;;;;;;
2023/10/14 11:47:46;;;;;;;;;;;;;;;;;;;;;
2023/10/14 12:05:12;;;;;;;;;8.67;2.00;;;;;20.50;98.73;101342.88;4799288;29;45424;-88
2023/10/14 12:08:15;;;;;;;;;2.00;2.00;;;;;20.51;98.06;101345.41;4790804;29;46038;-88
2023/10/14 12:10:49;;;;;;;;;8.00;6.67;;;;;20.51;99.61;101345.41;4767341;29;45553;-86
2023/10/14 12:14:03;;;;;;;;;;;;;;;;;;;;;
2023/10/14 12:20:22;;;;;;;;;7.33;3.00;;;;;20.26;99.94;101305.00;4819587;29;45676;-86
2023/10/14 12:22:49;;;;;;;;;9.25;3.75;;;;;20.49;99.13;101355.97;4856860;28;45532;-84
2023/10/14 12:28:11;;;;;;;;;2.25;2.00;;;;;20.52;98.70;101337.88;4990659;28;45615;-87
2023/10/14 12:30:46;;;;;;;;;3.33;3.33;;;;;20.25;97.62;101306.13;5017988;28;45506;-87
2023/10/14 12:33:19;;;;;;;;;4.67;3.00;;;;;20.23;96.61;101322.22;5009281;28;46453;-85
2023/10/14 12:35:45;;;;;;;;;4.25;2.00;;;;;20.37;96.45;101341.34;5001276;28;45846;-87
2023/10/14 12:38:19;;;;;;;;;27.67;23.00;;;;;20.38;96.51;101343.03;5009785;28;45448;-84
2023/10/14 12:40:45;;;;;;;;;19.33;12.00;;;;;20.25;99.29;101296.91;5025756;28;47357;-86
2023/10/14 12:43:15;;;;;;;;;10.00;6.67;;;;;20.63;97.95;101353.63;5007804;28;45604;-84
2023/10/14 12:45:42;;;;;;;;;9.00;6.67;;;;;20.49;97.57;101318.91;5016959;28;45729;-87
2023/10/14 12:48:10;;;;;;;;;4.33;4.33;;;;;20.77;98.38;101354.09;5018122;28;45532;-86
2023/10/14 12:50:40;;;;;;;;;1.75;1.75;;;;;20.53;96.55;101309.75;5029050;28;47342;-87
2023/10/14 12:53:12;;;;;;;;;4.50;2.00;;;;;20.80;96.37;101364.72;5008938;28;45843;-88
2023/10/14 12:55:49;;;;;;;;;4.50;3.00;;;;;20.88;94.55;101374.53;5001630;28;45444;-86
2023/10/14 12:58:18;;;;;;;;;3.00;1.75;;;;;20.72;93.29;101340.06;5013956;28;45482;-87
2023/10/14 13:00:43;;;;;;;;;1.00;1.00;;;;;20.88;92.75;101367.00;5010030;28;45487;-83
2023/10/14 13:03:11;;;;;;;;;2.25;1.00;;;;;20.88;92.32;101367.00;5007011;28;46895;-85
2023/10/14 13:05:38;;;;;;;;;4.67;2.67;;;;;20.69;93.80;101354.53;5009463;28;45940;-86
2023/10/14 13:08:04;;;;;;;;;5.25;3.00;;;;;20.60;93.41;101352.19;4998780;28;45468;-85
2023/10/14 13:10:30;;;;;;;;;1.00;0.00;;;;;20.46;93.09;101348.13;5012373;28;46132;-85